createdAt,value
2022-12-23T00:02:12.595Z,8.90
2022-12-23T00:04:55.395Z,8.30
2022-12-23T00:07:38.025Z,8.00
2022-12-23T00:10:20.755Z,8.60
2022-12-23T00:13:21.054Z,7.95
2022-12-23T00:16:06.028Z,7.65
2022-12-23T00:18:48.734Z,7.53
2022-12-23T00:21:31.382Z,8.25
2022-12-23T00:24:13.944Z,7.10
2022-12-23T00:26:56.566Z,7.43
2022-12-23T00:29:39.125Z,7.35
2022-12-23T00:32:23.051Z,7.18
2022-12-23T00:35:06.074Z,6.60
2022-12-23T00:37:48.682Z,7.30
2022-12-23T00:40:48.628Z,7.32
2022-12-23T00:43:31.264Z,7.35
2022-12-23T00:46:13.885Z,7.75
2022-12-23T00:49:15.408Z,7.60
2022-12-23T00:51:58.007Z,7.53
2022-12-23T00:54:40.583Z,8.57
2022-12-23T00:57:23.123Z,7.75
2022-12-23T01:00:06.171Z,7.07
2022-12-23T01:03:06.539Z,7.53
2022-12-23T01:05:50.661Z,8.23
2022-12-23T01:08:33.319Z,7.47
2022-12-23T01:11:15.907Z,7.13
2022-12-23T01:13:59.234Z,8.35
2022-12-23T01:16:42.904Z,8.07
2022-12-23T01:19:25.536Z,7.75
2022-12-23T01:22:09.463Z,8.57
2022-12-23T01:24:52.102Z,7.93
2022-12-23T01:27:34.657Z,8.68
2022-12-23T01:30:17.375Z,8.55
2022-12-23T01:32:59.933Z,8.18
2022-12-23T01:35:42.546Z,7.78
2022-12-23T01:38:26.493Z,8.38
2022-12-23T01:41:29.430Z,8.00
2022-12-23T01:44:29.760Z,8.20
2022-12-23T01:47:14.241Z,8.02
2022-12-23T01:49:58.371Z,8.48
2022-12-23T01:52:44.363Z,7.75
2022-12-23T01:55:30.085Z,7.63
2022-12-23T01:58:14.487Z,7.53
2022-12-23T02:01:16.167Z,6.68
2022-12-23T02:03:59.644Z,6.72
2022-12-23T02:07:01.050Z,7.88
2022-12-23T02:09:43.648Z,7.45
2022-12-23T02:12:43.599Z,7.30
2022-12-23T02:15:47.503Z,7.50
2022-12-23T02:18:40.428Z,6.80
2022-12-23T02:21:28.688Z,7.13
2022-12-23T02:24:30.377Z,7.20
2022-12-23T02:27:14.558Z,7.35
2022-12-23T02:30:07.729Z,8.23
2022-12-23T02:33:06.438Z,7.80
2022-12-23T02:35:55.389Z,8.40
2022-12-23T02:38:43.548Z,8.55
2022-12-23T02:41:30.949Z,7.15
2022-12-23T02:44:18.252Z,7.95
2022-12-23T02:47:02.454Z,6.63
2022-12-23T02:49:50.052Z,8.25
2022-12-23T02:52:33.855Z,9.57
2022-12-23T02:55:18.590Z,8.80
2022-12-23T02:58:01.928Z,8.38
2022-12-23T03:00:45.047Z,7.93
2022-12-23T03:03:27.966Z,8.10
2022-12-23T03:06:18.636Z,8.55
2022-12-23T03:09:01.554Z,7.28
2022-12-23T03:11:52.520Z,7.85
2022-12-23T03:14:45.013Z,7.72
2022-12-23T03:17:36.243Z,8.20
2022-12-23T03:20:22.520Z,8.13
2022-12-23T03:23:09.215Z,8.10
2022-12-23T03:25:56.304Z,8.45
2022-12-23T03:28:41.707Z,7.20
2022-12-23T03:31:26.558Z,7.72
2022-12-23T03:34:11.671Z,6.75
2022-12-23T03:36:56.084Z,7.90
2022-12-23T03:39:43.058Z,7.65
2022-12-23T03:42:27.325Z,8.05
2022-12-23T03:45:37.524Z,7.70
2022-12-23T03:48:16.454Z,8.85
2022-12-23T03:51:01.048Z,8.27
2022-12-23T03:53:47.698Z,8.00
2022-12-23T03:56:32.945Z,7.88
2022-12-23T03:59:16.187Z,8.90
2022-12-23T04:02:02.491Z,9.80
2022-12-23T04:04:53.303Z,8.35
2022-12-23T04:07:38.309Z,8.32
2022-12-23T04:10:22.493Z,8.75
2022-12-23T04:13:06.668Z,9.88
2022-12-23T04:15:49.329Z,10.93
2022-12-23T04:18:31.979Z,10.38
2022-12-23T04:21:14.585Z,9.35
2022-12-23T04:23:57.174Z,10.00
2022-12-23T04:26:39.822Z,9.38
2022-12-23T04:29:23.730Z,10.68
2022-12-23T04:32:06.599Z,11.20
2022-12-23T04:34:49.176Z,10.63
2022-12-23T04:37:31.829Z,11.18
2022-12-23T04:40:14.581Z,11.60
2022-12-23T04:42:57.182Z,11.18
2022-12-23T04:45:41.128Z,11.95
2022-12-23T04:48:23.709Z,11.18
2022-12-23T04:51:06.428Z,10.07
2022-12-23T04:53:49.024Z,9.10
2022-12-23T04:56:31.640Z,8.73
2022-12-23T04:59:14.307Z,11.27
2022-12-23T05:01:58.692Z,11.98
2022-12-23T05:04:41.687Z,12.07
2022-12-23T05:07:24.351Z,11.27
2022-12-23T05:10:07.401Z,13.18
2022-12-23T05:12:49.982Z,12.60
2022-12-23T05:15:33.016Z,11.82
2022-12-23T05:18:17.076Z,12.77
2022-12-23T05:20:59.662Z,11.50
2022-12-23T05:23:42.342Z,13.90
2022-12-23T05:26:24.945Z,11.85
2022-12-23T05:29:07.581Z,12.85
2022-12-23T05:31:50.277Z,12.85
2022-12-23T05:34:34.312Z,12.63
2022-12-23T05:37:16.940Z,13.95
2022-12-23T05:39:59.573Z,13.30
2022-12-23T05:42:42.368Z,13.77
2022-12-23T05:45:24.964Z,13.57
2022-12-23T05:48:07.893Z,13.77
2022-12-23T05:50:52.401Z,13.48
2022-12-23T05:53:35.048Z,12.80
2022-12-23T05:56:17.628Z,14.02
2022-12-23T05:59:00.229Z,13.45
2022-12-23T06:01:42.965Z,12.10
2022-12-23T06:04:25.797Z,13.60
2022-12-23T06:07:10.024Z,13.63
2022-12-23T06:09:52.868Z,13.38
2022-12-23T06:12:35.488Z,13.15
2022-12-23T06:15:18.193Z,13.65
2022-12-23T06:18:00.785Z,13.50
2022-12-23T06:20:46.014Z,14.18
2022-12-23T06:23:29.994Z,13.30
2022-12-23T06:26:12.632Z,13.73
2022-12-23T06:28:55.251Z,13.15
2022-12-23T06:31:38.217Z,12.70
2022-12-23T06:34:20.883Z,13.68
2022-12-23T06:37:03.570Z,14.00
2022-12-23T06:39:47.509Z,14.32
2022-12-23T06:42:30.187Z,12.75
2022-12-23T06:45:13.426Z,12.52
2022-12-23T06:47:56.061Z,12.18
2022-12-23T06:50:38.680Z,13.25
2022-12-23T06:53:21.273Z,12.40
2022-12-23T06:56:05.685Z,12.65
2022-12-23T06:58:48.394Z,11.40
2022-12-23T07:01:31.107Z,11.98
2022-12-23T07:04:13.926Z,12.10
2022-12-23T07:06:57.786Z,12.35
2022-12-23T07:09:40.459Z,12.35
2022-12-23T07:12:24.492Z,11.57
2022-12-23T07:15:07.682Z,12.85
2022-12-23T07:17:50.346Z,12.00
2022-12-23T07:20:32.984Z,12.15
2022-12-23T07:23:15.556Z,10.98
2022-12-23T07:25:58.274Z,12.30
2022-12-23T07:28:43.872Z,12.52
2022-12-23T07:31:26.530Z,11.77
2022-12-23T07:34:09.355Z,11.85
2022-12-23T07:36:51.972Z,11.38
2022-12-23T07:39:34.874Z,11.32
2022-12-23T07:42:43.309Z,11.07
2022-12-23T07:45:21.498Z,10.82
2022-12-23T07:48:04.148Z,10.48
2022-12-23T07:50:46.846Z,10.63
2022-12-23T07:53:30.546Z,10.00
2022-12-23T07:56:13.154Z,11.30
2022-12-23T07:58:55.785Z,10.88
2022-12-23T08:01:40.041Z,11.40
2022-12-23T08:04:22.868Z,10.63
2022-12-23T08:07:05.563Z,9.77
2022-12-23T08:09:48.222Z,10.05
2022-12-23T08:12:31.103Z,10.25
2022-12-23T08:15:13.799Z,10.23
2022-12-23T08:17:57.816Z,9.35
2022-12-23T08:20:40.455Z,10.02
2022-12-23T08:23:25.040Z,10.23
2022-12-23T08:26:09.152Z,10.38
2022-12-23T08:28:53.600Z,10.02
2022-12-23T08:31:36.269Z,10.10
2022-12-23T08:34:20.465Z,10.70
2022-12-23T08:37:03.068Z,10.00
2022-12-23T08:39:45.763Z,9.90
2022-12-23T08:42:28.464Z,9.88
2022-12-23T08:45:11.414Z,10.60
2022-12-23T08:47:54.019Z,9.60
2022-12-23T08:50:41.683Z,10.10
2022-12-23T08:53:24.278Z,9.82
2022-12-23T08:56:08.055Z,10.70
2022-12-23T08:58:52.682Z,9.73
2022-12-23T09:01:35.895Z,9.52
2022-12-23T09:04:18.689Z,10.15
2022-12-23T09:07:02.676Z,10.05
2022-12-23T09:09:45.366Z,9.65
2022-12-23T09:12:27.955Z,9.75
2022-12-23T09:15:11.122Z,9.90
2022-12-23T09:17:53.715Z,9.63
2022-12-23T09:20:36.330Z,9.85
2022-12-23T09:23:20.320Z,10.35
2022-12-23T09:26:02.956Z,9.65
2022-12-23T09:28:45.595Z,9.77
2022-12-23T09:31:35.844Z,9.35
2022-12-23T09:34:19.666Z,9.95
2022-12-23T09:37:03.433Z,8.55
2022-12-23T09:39:47.562Z,10.13
2022-12-23T09:42:37.413Z,9.70
2022-12-23T09:45:25.079Z,9.45
2022-12-23T09:48:10.557Z,9.38
2022-12-23T09:50:53.325Z,9.73
2022-12-23T09:53:45.290Z,10.00
2022-12-23T09:56:50.212Z,9.18
2022-12-23T09:59:41.133Z,8.70
2022-12-23T10:02:26.318Z,9.65
2022-12-23T10:05:16.686Z,9.52
2022-12-23T10:08:02.715Z,9.00
2022-12-23T10:10:46.525Z,9.73
2022-12-23T10:13:35.303Z,9.75
2022-12-23T10:16:19.612Z,8.95
2022-12-23T10:19:04.200Z,9.00
2022-12-23T10:21:48.722Z,9.00
2022-12-23T10:24:34.680Z,9.82
2022-12-23T10:27:23.150Z,9.70
2022-12-23T10:30:34.306Z,10.13
2022-12-23T10:33:19.579Z,8.85
2022-12-23T10:36:06.229Z,10.20
2022-12-23T10:38:52.610Z,9.85
2022-12-23T10:41:39.141Z,10.02
2022-12-23T10:44:36.950Z,9.40
2022-12-23T10:47:27.079Z,10.85
2022-12-23T10:50:15.659Z,9.70
2022-12-23T10:52:59.351Z,9.68
2022-12-23T10:55:42.236Z,9.52
2022-12-23T10:58:24.940Z,9.80
2022-12-23T11:01:14.133Z,9.05
2022-12-23T11:04:05.657Z,9.55
2022-12-23T11:07:10.742Z,9.18
2022-12-23T11:09:56.090Z,9.82
2022-12-23T11:12:42.480Z,9.30
2022-12-23T11:15:27.006Z,9.60
2022-12-23T11:18:19.404Z,9.75
2022-12-23T11:21:04.595Z,9.55
2022-12-23T11:23:47.517Z,9.23
2022-12-23T11:26:30.729Z,8.98
2022-12-23T11:29:14.385Z,9.63
2022-12-23T11:31:57.246Z,9.00
2022-12-23T11:34:39.947Z,8.77
2022-12-23T11:37:26.823Z,9.18
2022-12-23T11:40:16.290Z,8.60
2022-12-23T11:43:00.258Z,9.23
2022-12-23T11:45:42.915Z,8.20
2022-12-23T11:48:29.408Z,9.18
2022-12-23T11:51:12.064Z,8.85
2022-12-23T11:54:01.411Z,8.95
2022-12-23T11:56:44.597Z,9.02
2022-12-23T11:59:29.113Z,8.90
2022-12-23T12:02:14.423Z,9.05
2022-12-23T12:04:58.661Z,9.05
2022-12-23T12:07:42.697Z,7.97
2022-12-23T12:10:28.259Z,7.82
2022-12-23T12:13:22.350Z,7.97
2022-12-23T12:16:12.006Z,7.75
2022-12-23T12:18:56.289Z,8.80
2022-12-23T12:21:39.892Z,8.00
2022-12-23T12:24:25.591Z,7.80
2022-12-23T12:27:11.749Z,8.25
2022-12-23T12:29:56.762Z,8.07
2022-12-23T12:32:42.281Z,9.02
2022-12-23T12:35:30.155Z,7.75
2022-12-23T12:38:17.348Z,8.50
2022-12-23T12:41:02.407Z,8.85
2022-12-23T12:43:49.661Z,9.15
2022-12-23T12:46:35.300Z,8.60
2022-12-23T12:49:21.459Z,8.77
2022-12-23T12:52:07.326Z,8.82
2022-12-23T12:54:51.267Z,7.82
2022-12-23T12:57:36.951Z,8.45
2022-12-23T13:00:22.258Z,8.13
2022-12-23T13:03:12.714Z,7.90
2022-12-23T13:06:04.272Z,8.10
2022-12-23T13:08:53.829Z,8.45
2022-12-23T13:11:44.018Z,7.38
2022-12-23T13:14:30.935Z,7.60
2022-12-23T13:17:17.563Z,8.77
2022-12-23T13:20:04.650Z,7.88
2022-12-23T13:22:49.118Z,8.43
2022-12-23T13:25:36.409Z,7.72
2022-12-23T13:28:27.832Z,8.50
2022-12-23T13:31:15.632Z,8.48
2022-12-23T13:34:04.949Z,7.63
2022-12-23T13:36:52.282Z,7.13
2022-12-23T13:39:42.778Z,7.47
2022-12-23T13:42:27.642Z,8.18
2022-12-23T13:45:14.123Z,7.88
2022-12-23T13:48:05.082Z,7.88
2022-12-23T13:50:54.419Z,6.93
2022-12-23T13:53:48.471Z,7.28
2022-12-23T13:56:34.530Z,7.78
2022-12-23T13:59:17.521Z,7.30
2022-12-23T14:02:00.268Z,7.38
2022-12-23T14:04:58.325Z,7.50
2022-12-23T14:07:45.311Z,7.28
2022-12-23T14:10:28.155Z,7.40
2022-12-23T14:13:15.800Z,7.22
2022-12-23T14:16:03.655Z,8.02
2022-12-23T14:18:55.007Z,7.60
2022-12-23T14:21:43.016Z,8.00
2022-12-23T14:24:43.877Z,7.55
2022-12-23T14:27:50.650Z,7.40
2022-12-23T14:30:36.756Z,8.02
2022-12-23T14:33:24.280Z,6.85
2022-12-23T14:36:22.013Z,7.03
2022-12-23T14:39:22.480Z,7.72
2022-12-23T14:42:07.616Z,7.53
2022-12-23T14:44:52.666Z,7.53
2022-12-23T14:47:40.640Z,8.20
2022-12-23T14:50:37.157Z,7.75
2022-12-23T14:53:24.814Z,7.97
2022-12-23T14:56:11.477Z,7.93
2022-12-23T14:58:59.748Z,8.52
2022-12-23T15:01:43.746Z,8.20
2022-12-23T15:04:29.474Z,8.38
2022-12-23T15:07:16.149Z,9.20
2022-12-23T15:10:04.273Z,8.63
2022-12-23T15:12:48.186Z,8.57
2022-12-23T15:15:31.497Z,8.38
2022-12-23T15:18:14.318Z,8.70
2022-12-23T15:21:02.747Z,8.13
2022-12-23T15:23:48.960Z,9.95
2022-12-23T15:26:32.792Z,9.15
2022-12-23T15:29:17.849Z,9.35
2022-12-23T15:32:01.540Z,9.25
2022-12-23T15:34:44.232Z,8.82
2022-12-23T15:37:29.993Z,8.23
2022-12-23T15:40:24.427Z,8.48
2022-12-23T15:43:17.151Z,9.10
2022-12-23T15:46:05.834Z,8.32
2022-12-23T15:48:49.059Z,7.63
2022-12-23T15:52:05.737Z,6.88
2022-12-23T15:54:39.953Z,7.75
2022-12-23T15:57:25.205Z,7.50
2022-12-23T16:00:20.634Z,7.72
2022-12-23T16:03:05.644Z,7.60
2022-12-23T16:05:51.574Z,7.57
2022-12-23T16:08:35.373Z,7.10
2022-12-23T16:11:20.991Z,8.20
2022-12-23T16:14:21.308Z,8.63
2022-12-23T16:17:14.177Z,8.77
2022-12-23T16:20:14.126Z,8.13
2022-12-23T16:22:57.829Z,10.15
2022-12-23T16:25:44.204Z,8.63
2022-12-23T16:28:38.108Z,9.43
2022-12-23T16:31:21.255Z,10.80
2022-12-23T16:34:05.786Z,10.10
2022-12-23T16:36:48.445Z,10.73
2022-12-23T16:39:31.307Z,11.15
2022-12-23T16:42:13.932Z,11.57
2022-12-23T16:44:58.061Z,10.45
2022-12-23T16:47:42.586Z,10.73
2022-12-23T16:50:25.356Z,11.98
2022-12-23T16:53:08.017Z,11.02
2022-12-23T16:55:55.323Z,12.18
2022-12-23T16:58:42.734Z,12.23
2022-12-23T17:01:27.935Z,11.63
2022-12-23T17:04:10.641Z,12.07
2022-12-23T17:06:53.303Z,11.65
2022-12-23T17:09:36.014Z,12.40
2022-12-23T17:12:18.860Z,11.30
2022-12-23T17:15:01.541Z,11.55
2022-12-23T17:17:45.617Z,11.73
2022-12-23T17:20:28.448Z,12.40
2022-12-23T17:23:19.079Z,12.15
2022-12-23T17:26:01.830Z,12.48
2022-12-23T17:28:44.502Z,12.48
2022-12-23T17:31:27.485Z,11.80
2022-12-23T17:34:15.393Z,12.82
2022-12-23T17:37:00.676Z,13.15
2022-12-23T17:39:44.078Z,13.00
2022-12-23T17:42:26.810Z,12.05
2022-12-23T17:45:20.234Z,11.98
2022-12-23T17:48:02.913Z,12.88
2022-12-23T17:50:47.325Z,12.20
2022-12-23T17:53:30.148Z,12.05
2022-12-23T17:56:14.088Z,11.73
2022-12-23T17:58:56.827Z,11.88
2022-12-23T18:01:39.586Z,12.23
2022-12-23T18:04:22.228Z,12.23
2022-12-23T18:07:07.188Z,12.07
2022-12-23T18:09:50.737Z,12.00
2022-12-23T18:12:35.308Z,11.95
2022-12-23T18:15:19.980Z,11.68
2022-12-23T18:18:03.395Z,10.95
2022-12-23T18:20:47.585Z,11.70
2022-12-23T18:23:32.710Z,12.20
2022-12-23T18:26:16.188Z,11.98
2022-12-23T18:28:58.876Z,12.23
2022-12-23T18:31:50.537Z,12.82
2022-12-23T18:34:34.503Z,11.70
2022-12-23T18:37:17.658Z,11.95
2022-12-23T18:40:01.694Z,12.57
2022-12-23T18:42:44.420Z,12.38
2022-12-23T18:45:32.328Z,12.25
2022-12-23T18:48:15.161Z,12.95
2022-12-23T18:50:57.824Z,12.68
2022-12-23T18:53:41.665Z,12.23
2022-12-23T18:56:25.642Z,12.93
2022-12-23T18:59:12.670Z,13.20
2022-12-23T19:01:56.084Z,12.77
2022-12-23T19:04:39.177Z,13.43
2022-12-23T19:07:21.850Z,13.45
2022-12-23T19:10:05.791Z,11.50
2022-12-23T19:12:50.124Z,11.75
2022-12-23T19:15:32.996Z,11.77
2022-12-23T19:18:16.381Z,11.32
2022-12-23T19:20:59.241Z,11.00
2022-12-23T19:23:42.190Z,11.48
2022-12-23T19:26:25.145Z,11.68
2022-12-23T19:29:09.254Z,11.40
2022-12-23T19:31:51.967Z,11.30
2022-12-23T19:34:35.113Z,12.43
2022-12-23T19:37:17.915Z,11.95
2022-12-23T19:40:00.796Z,13.30
2022-12-23T19:42:43.569Z,12.57
2022-12-23T19:45:27.705Z,13.30
2022-12-23T19:48:10.477Z,11.80
2022-12-23T19:50:57.070Z,12.45
2022-12-23T19:53:40.434Z,13.45
2022-12-23T19:56:23.078Z,12.25
2022-12-23T19:59:05.786Z,12.60
2022-12-23T20:01:50.003Z,12.07
2022-12-23T20:04:32.945Z,13.07
2022-12-23T20:07:15.758Z,12.55
2022-12-23T20:09:59.827Z,13.35
2022-12-23T20:12:42.503Z,13.02
2022-12-23T20:15:25.147Z,12.27
2022-12-23T20:18:09.163Z,11.38
2022-12-23T20:20:51.898Z,12.02
2022-12-23T20:23:35.126Z,11.38
2022-12-23T20:26:18.958Z,10.75
2022-12-23T20:29:01.665Z,10.00
2022-12-23T20:31:44.538Z,9.98
2022-12-23T20:34:33.226Z,9.77
2022-12-23T20:37:19.327Z,9.18
2022-12-23T20:40:02.061Z,8.93
2022-12-23T20:42:44.761Z,8.85
2022-12-23T20:45:27.489Z,8.30
2022-12-23T20:48:13.036Z,8.38
2022-12-23T20:50:57.103Z,7.93
2022-12-23T20:53:39.827Z,7.80
2022-12-23T20:56:27.445Z,7.30
2022-12-23T20:59:10.195Z,7.15
2022-12-23T21:01:52.969Z,6.47
2022-12-23T21:04:35.682Z,6.68
2022-12-23T21:07:19.784Z,5.40
2022-12-23T21:10:02.555Z,6.05
2022-12-23T21:12:45.532Z,6.68
2022-12-23T21:15:28.423Z,5.47
2022-12-23T21:18:11.116Z,5.22
2022-12-23T21:20:53.817Z,5.65
2022-12-23T21:23:41.842Z,5.13
2022-12-23T21:26:25.497Z,4.20
2022-12-23T21:29:08.940Z,4.32
2022-12-23T21:31:51.636Z,4.25
2022-12-23T21:34:34.428Z,3.55
2022-12-23T21:37:17.157Z,3.80
2022-12-23T21:40:01.240Z,3.50
2022-12-23T21:42:43.914Z,3.45
2022-12-23T21:45:26.713Z,3.63
2022-12-23T21:48:09.442Z,3.58
2022-12-23T21:50:52.179Z,3.05
2022-12-23T21:53:35.111Z,2.88
2022-12-23T21:56:21.799Z,3.05
2022-12-23T21:59:05.850Z,2.97
2022-12-23T22:01:50.191Z,3.03
2022-12-23T22:04:33.051Z,2.90
2022-12-23T22:07:15.714Z,2.80
2022-12-23T22:09:58.421Z,3.10
2022-12-23T22:12:42.456Z,3.03
2022-12-23T22:15:25.192Z,3.30
2022-12-23T22:18:07.946Z,3.30
2022-12-23T22:20:50.614Z,3.17
2022-12-23T22:23:33.336Z,3.50
2022-12-23T22:26:23.904Z,2.88
2022-12-23T22:29:09.192Z,3.42
2022-12-23T22:31:53.099Z,3.60
2022-12-23T22:34:35.944Z,3.38
2022-12-23T22:37:18.552Z,3.10
2022-12-23T22:40:01.337Z,3.22
2022-12-23T22:42:44.087Z,3.15
2022-12-23T22:45:28.191Z,3.15
2022-12-23T22:48:11.246Z,3.00
2022-12-23T22:51:01.728Z,3.20
2022-12-23T22:53:44.480Z,3.30
2022-12-23T22:56:27.185Z,3.38
2022-12-23T22:59:13.875Z,2.65
2022-12-23T23:01:57.942Z,3.13
2022-12-23T23:04:40.661Z,3.40
2022-12-23T23:07:48.152Z,3.38
2022-12-23T23:10:57.189Z,2.90
2022-12-23T23:13:39.862Z,3.55
2022-12-23T23:16:23.767Z,2.97
2022-12-23T23:19:09.177Z,3.03
2022-12-23T23:21:53.381Z,2.65
2022-12-23T23:24:36.203Z,3.13
2022-12-23T23:27:18.881Z,2.53
2022-12-23T23:30:01.488Z,2.80
2022-12-23T23:32:44.226Z,2.70
2022-12-23T23:35:28.463Z,3.20
2022-12-23T23:38:11.237Z,3.20
2022-12-23T23:40:54.196Z,3.17
2022-12-23T23:43:36.894Z,2.90
2022-12-23T23:46:19.942Z,3.13
2022-12-23T23:49:02.741Z,2.90
2022-12-23T23:51:46.737Z,2.88
2022-12-23T23:54:29.406Z,2.63
2022-12-23T23:57:12.276Z,2.83
2022-12-23T23:59:55.013Z,2.80
